sensor_id;sensor_type;location;lat;lon;timestamp;temperature;humidity
27848;DHT22;15212;48.830;8.730;2023-07-02T00:00:41;15.60;99.90
27848;DHT22;15212;48.830;8.730;2023-07-02T00:03:10;15.60;99.90
27848;DHT22;15212;48.830;8.730;2023-07-02T00:05:38;15.70;99.90
27848;DHT22;15212;48.830;8.730;2023-07-02T00:08:06;15.60;99.90
27848;DHT22;15212;48.830;8.730;2023-07-02T00:10:35;15.60;99.90
27848;DHT22;15212;48.830;8.730;2023-07-02T00:13:03;15.70;99.90
27848;DHT22;15212;48.830;8.730;2023-07-02T00:15:31;15.60;99.90
27848;DHT22;15212;48.830;8.730;2023-07-02T00:18:00;15.60;99.90
27848;DHT22;15212;48.830;8.730;2023-07-02T00:20:28;15.60;99.90
27848;DHT22;15212;48.830;8.730;2023-07-02T00:22:58;15.60;99.90
27848;DHT22;15212;48.830;8.730;2023-07-02T00:25:27;15.50;99.90
27848;DHT22;15212;48.830;8.730;2023-07-02T00:27:55;15.50;99.90
27848;DHT22;15212;48.830;8.730;2023-07-02T00:30:23;15.50;99.90
27848;DHT22;15212;48.830;8.730;2023-07-02T00:32:52;15.50;99.90
27848;DHT22;15212;48.830;8.730;2023-07-02T00:35:20;15.50;99.90
27848;DHT22;15212;48.830;8.730;2023-07-02T00:37:49;15.50;99.90
27848;DHT22;15212;48.830;8.730;2023-07-02T00:40:18;15.40;99.90
27848;DHT22;15212;48.830;8.730;2023-07-02T00:42:46;15.40;99.90
27848;DHT22;15212;48.830;8.730;2023-07-02T00:45:14;15.40;99.90
27848;DHT22;15212;48.830;8.730;2023-07-02T00:47:43;15.40;99.90
27848;DHT22;15212;48.830;8.730;2023-07-02T00:50:12;15.40;99.90
27848;DHT22;15212;48.830;8.730;2023-07-02T00:52:40;15.40;99.90
27848;DHT22;15212;48.830;8.730;2023-07-02T00:55:09;15.40;99.90
27848;DHT22;15212;48.830;8.730;2023-07-02T00:57:37;15.40;99.90
27848;DHT22;15212;48.830;8.730;2023-07-02T01:00:07;15.30;99.90
27848;DHT22;15212;48.830;8.730;2023-07-02T01:02:36;15.30;99.90
27848;DHT22;15212;48.830;8.730;2023-07-02T01:05:05;15.30;99.90
27848;DHT22;15212;48.830;8.730;2023-07-02T01:07:33;15.30;99.90
27848;DHT22;15212;48.830;8.730;2023-07-02T01:10:01;15.30;99.90
27848;DHT22;15212;48.830;8.730;2023-07-02T01:12:30;15.20;99.90
27848;DHT22;15212;48.830;8.730;2023-07-02T01:15:00;15.20;99.90
27848;DHT22;15212;48.830;8.730;2023-07-02T01:17:32;15.20;99.90
27848;DHT22;15212;48.830;8.730;2023-07-02T01:20:04;15.20;99.90
27848;DHT22;15212;48.830;8.730;2023-07-02T01:22:35;15.20;99.90
27848;DHT22;15212;48.830;8.730;2023-07-02T01:25:05;15.10;99.90
27848;DHT22;15212;48.830;8.730;2023-07-02T01:27:35;15.10;99.90
27848;DHT22;15212;48.830;8.730;2023-07-02T01:30:04;15.10;99.90
27848;DHT22;15212;48.830;8.730;2023-07-02T01:32:33;15.10;99.90
27848;DHT22;15212;48.830;8.730;2023-07-02T01:35:02;15.10;99.90
27848;DHT22;15212;48.830;8.730;2023-07-02T01:37:30;15.10;99.90
27848;DHT22;15212;48.830;8.730;2023-07-02T01:40:00;15.10;99.90
27848;DHT22;15212;48.830;8.730;2023-07-02T01:42:29;15.20;99.90
27848;DHT22;15212;48.830;8.730;2023-07-02T01:44:58;15.20;99.90
27848;DHT22;15212;48.830;8.730;2023-07-02T01:47:26;15.20;99.90
27848;DHT22;15212;48.830;8.730;2023-07-02T01:49:55;15.20;99.90
27848;DHT22;15212;48.830;8.730;2023-07-02T01:52:23;15.30;99.90
27848;DHT22;15212;48.830;8.730;2023-07-02T01:54:51;15.30;99.90
27848;DHT22;15212;48.830;8.730;2023-07-02T01:57:20;15.30;99.90
27848;DHT22;15212;48.830;8.730;2023-07-02T01:59:48;15.30;99.90
27848;DHT22;15212;48.830;8.730;2023-07-02T02:02:17;15.30;99.90
27848;DHT22;15212;48.830;8.730;2023-07-02T02:04:46;15.30;99.90
27848;DHT22;15212;48.830;8.730;2023-07-02T02:07:14;15.40;99.90
27848;DHT22;15212;48.830;8.730;2023-07-02T02:09:43;15.40;99.90
27848;DHT22;15212;48.830;8.730;2023-07-02T02:12:11;15.40;99.90
27848;DHT22;15212;48.830;8.730;2023-07-02T02:14:40;15.40;99.90
27848;DHT22;15212;48.830;8.730;2023-07-02T02:17:09;15.30;99.90
27848;DHT22;15212;48.830;8.730;2023-07-02T02:19:37;15.30;99.90
27848;DHT22;15212;48.830;8.730;2023-07-02T02:22:05;15.30;99.90
27848;DHT22;15212;48.830;8.730;2023-07-02T02:24:34;15.30;99.90
27848;DHT22;15212;48.830;8.730;2023-07-02T02:27:02;15.30;99.90
27848;DHT22;15212;48.830;8.730;2023-07-02T02:29:31;15.30;99.90
27848;DHT22;15212;48.830;8.730;2023-07-02T02:31:59;15.20;99.90
27848;DHT22;15212;48.830;8.730;2023-07-02T02:34:28;15.10;99.90
27848;DHT22;15212;48.830;8.730;2023-07-02T02:36:56;15.00;99.90
27848;DHT22;15212;48.830;8.730;2023-07-02T02:39:24;14.90;99.90
27848;DHT22;15212;48.830;8.730;2023-07-02T02:41:53;14.80;99.90
27848;DHT22;15212;48.830;8.730;2023-07-02T02:44:21;14.70;99.90
27848;DHT22;15212;48.830;8.730;2023-07-02T02:46:49;14.70;99.90
27848;DHT22;15212;48.830;8.730;2023-07-02T02:49:18;14.60;99.90
27848;DHT22;15212;48.830;8.730;2023-07-02T02:51:46;14.60;99.90
27848;DHT22;15212;48.830;8.730;2023-07-02T02:54:15;14.60;99.90
27848;DHT22;15212;48.830;8.730;2023-07-02T02:56:43;14.50;99.90
27848;DHT22;15212;48.830;8.730;2023-07-02T02:59:11;14.50;99.90
27848;DHT22;15212;48.830;8.730;2023-07-02T03:01:40;14.40;99.90
27848;DHT22;15212;48.830;8.730;2023-07-02T03:04:08;14.40;99.90
27848;DHT22;15212;48.830;8.730;2023-07-02T03:06:37;14.40;99.90
27848;DHT22;15212;48.830;8.730;2023-07-02T03:09:05;14.40;99.90
27848;DHT22;15212;48.830;8.730;2023-07-02T03:11:33;14.40;99.90
27848;DHT22;15212;48.830;8.730;2023-07-02T03:14:02;14.40;99.90
27848;DHT22;15212;48.830;8.730;2023-07-02T03:16:30;14.40;99.90
27848;DHT22;15212;48.830;8.730;2023-07-02T03:19:00;14.30;99.90
27848;DHT22;15212;48.830;8.730;2023-07-02T03:21:29;14.20;99.90
27848;DHT22;15212;48.830;8.730;2023-07-02T03:23:58;14.20;99.90
27848;DHT22;15212;48.830;8.730;2023-07-02T03:26:27;14.10;99.90
27848;DHT22;15212;48.830;8.730;2023-07-02T03:28:55;14.10;99.90
27848;DHT22;15212;48.830;8.730;2023-07-02T03:31:23;14.10;99.90
27848;DHT22;15212;48.830;8.730;2023-07-02T03:33:52;14.00;99.90
27848;DHT22;15212;48.830;8.730;2023-07-02T03:36:20;14.00;99.90
27848;DHT22;15212;48.830;8.730;2023-07-02T03:38:49;14.00;99.90
27848;DHT22;15212;48.830;8.730;2023-07-02T03:41:17;13.90;99.90
27848;DHT22;15212;48.830;8.730;2023-07-02T03:43:45;13.90;99.90
27848;DHT22;15212;48.830;8.730;2023-07-02T03:46:14;13.90;99.90
27848;DHT22;15212;48.830;8.730;2023-07-02T03:48:42;13.90;99.90
27848;DHT22;15212;48.830;8.730;2023-07-02T03:51:12;13.90;99.90
27848;DHT22;15212;48.830;8.730;2023-07-02T03:53:41;13.90;99.90
27848;DHT22;15212;48.830;8.730;2023-07-02T03:56:10;13.90;99.90
27848;DHT22;15212;48.830;8.730;2023-07-02T03:58:40;13.90;99.90
27848;DHT22;15212;48.830;8.730;2023-07-02T04:01:08;13.90;99.90
27848;DHT22;15212;48.830;8.730;2023-07-02T04:03:37;13.80;99.90
27848;DHT22;15212;48.830;8.730;2023-07-02T04:06:05;13.90;99.90
27848;DHT22;15212;48.830;8.730;2023-07-02T04:08:34;13.90;99.90
27848;DHT22;15212;48.830;8.730;2023-07-02T04:11:02;13.90;99.90
27848;DHT22;15212;48.830;8.730;2023-07-02T04:13:31;14.00;99.90
27848;DHT22;15212;48.830;8.730;2023-07-02T04:15:59;14.00;99.90
27848;DHT22;15212;48.830;8.730;2023-07-02T04:18:27;14.00;99.90
27848;DHT22;15212;48.830;8.730;2023-07-02T04:20:56;14.00;99.90
27848;DHT22;15212;48.830;8.730;2023-07-02T04:23:25;14.10;99.90
27848;DHT22;15212;48.830;8.730;2023-07-02T04:25:53;14.10;99.90
27848;DHT22;15212;48.830;8.730;2023-07-02T04:28:22;14.10;99.90
27848;DHT22;15212;48.830;8.730;2023-07-02T04:30:50;14.20;99.90
27848;DHT22;15212;48.830;8.730;2023-07-02T04:33:19;14.20;99.90
27848;DHT22;15212;48.830;8.730;2023-07-02T04:35:48;14.30;99.90
27848;DHT22;15212;48.830;8.730;2023-07-02T04:38:17;14.30;99.90
27848;DHT22;15212;48.830;8.730;2023-07-02T04:40:45;14.40;99.90
27848;DHT22;15212;48.830;8.730;2023-07-02T04:43:13;14.40;99.90
27848;DHT22;15212;48.830;8.730;2023-07-02T04:45:43;14.50;99.90
27848;DHT22;15212;48.830;8.730;2023-07-02T04:48:13;14.50;99.90
27848;DHT22;15212;48.830;8.730;2023-07-02T04:50:42;14.50;99.90
27848;DHT22;15212;48.830;8.730;2023-07-02T04:53:10;14.60;99.90
27848;DHT22;15212;48.830;8.730;2023-07-02T04:55:39;14.60;99.90
27848;DHT22;15212;48.830;8.730;2023-07-02T04:58:07;14.60;99.90
27848;DHT22;15212;48.830;8.730;2023-07-02T05:00:36;14.50;99.90
27848;DHT22;15212;48.830;8.730;2023-07-02T05:03:04;14.60;99.90
27848;DHT22;15212;48.830;8.730;2023-07-02T05:05:32;14.70;99.90
27848;DHT22;15212;48.830;8.730;2023-07-02T05:08:01;14.70;99.90
27848;DHT22;15212;48.830;8.730;2023-07-02T05:10:31;14.80;99.90
27848;DHT22;15212;48.830;8.730;2023-07-02T05:12:59;14.90;99.90
27848;DHT22;15212;48.830;8.730;2023-07-02T05:15:27;15.00;99.90
27848;DHT22;15212;48.830;8.730;2023-07-02T05:17:56;15.10;99.90
27848;DHT22;15212;48.830;8.730;2023-07-02T05:20:24;15.20;99.90
27848;DHT22;15212;48.830;8.730;2023-07-02T05:22:53;15.30;99.90
27848;DHT22;15212;48.830;8.730;2023-07-02T05:25:21;15.30;99.90
27848;DHT22;15212;48.830;8.730;2023-07-02T05:27:49;15.30;99.90
27848;DHT22;15212;48.830;8.730;2023-07-02T05:30:18;15.20;99.90
27848;DHT22;15212;48.830;8.730;2023-07-02T05:32:46;15.10;99.90
27848;DHT22;15212;48.830;8.730;2023-07-02T05:35:15;15.20;99.90
27848;DHT22;15212;48.830;8.730;2023-07-02T05:37:43;15.30;99.90
27848;DHT22;15212;48.830;8.730;2023-07-02T05:40:12;15.40;99.90
27848;DHT22;15212;48.830;8.730;2023-07-02T05:42:40;15.40;99.90
27848;DHT22;15212;48.830;8.730;2023-07-02T05:45:09;15.50;99.90
27848;DHT22;15212;48.830;8.730;2023-07-02T05:47:38;15.60;99.90
27848;DHT22;15212;48.830;8.730;2023-07-02T05:50:08;15.70;99.90
27848;DHT22;15212;48.830;8.730;2023-07-02T05:52:36;15.80;99.90
27848;DHT22;15212;48.830;8.730;2023-07-02T05:55:07;15.90;99.90
27848;DHT22;15212;48.830;8.730;2023-07-02T05:57:37;16.00;99.90
27848;DHT22;15212;48.830;8.730;2023-07-02T06:00:06;16.30;99.90
27848;DHT22;15212;48.830;8.730;2023-07-02T06:02:35;16.60;99.90
27848;DHT22;15212;48.830;8.730;2023-07-02T06:05:04;17.10;99.90
27848;DHT22;15212;48.830;8.730;2023-07-02T06:07:33;17.30;99.90
27848;DHT22;15212;48.830;8.730;2023-07-02T06:10:01;17.80;99.90
27848;DHT22;15212;48.830;8.730;2023-07-02T06:12:29;18.80;99.90
27848;DHT22;15212;48.830;8.730;2023-07-02T06:14:58;19.30;99.90
27848;DHT22;15212;48.830;8.730;2023-07-02T06:17:26;20.00;99.90
27848;DHT22;15212;48.830;8.730;2023-07-02T06:19:57;20.40;99.90
27848;DHT22;15212;48.830;8.730;2023-07-02T06:22:25;20.50;99.90
27848;DHT22;15212;48.830;8.730;2023-07-02T06:24:53;21.00;99.90
27848;DHT22;15212;48.830;8.730;2023-07-02T06:27:22;21.40;99.90
27848;DHT22;15212;48.830;8.730;2023-07-02T06:29:50;21.60;99.90
27848;DHT22;15212;48.830;8.730;2023-07-02T06:32:18;21.90;99.90
27848;DHT22;15212;48.830;8.730;2023-07-02T06:34:47;21.20;99.90
27848;DHT22;15212;48.830;8.730;2023-07-02T06:37:15;21.30;99.90
27848;DHT22;15212;48.830;8.730;2023-07-02T06:39:44;21.60;99.90
27848;DHT22;15212;48.830;8.730;2023-07-02T06:42:12;22.00;99.90
27848;DHT22;15212;48.830;8.730;2023-07-02T06:44:41;22.40;99.90
27848;DHT22;15212;48.830;8.730;2023-07-02T06:47:09;22.80;99.90
27848;DHT22;15212;48.830;8.730;2023-07-02T06:49:38;22.80;99.90
27848;DHT22;15212;48.830;8.730;2023-07-02T06:52:06;22.60;99.90
27848;DHT22;15212;48.830;8.730;2023-07-02T06:54:35;22.10;99.90
27848;DHT22;15212;48.830;8.730;2023-07-02T06:57:03;22.10;99.90
27848;DHT22;15212;48.830;8.730;2023-07-02T06:59:32;22.40;99.90
27848;DHT22;15212;48.830;8.730;2023-07-02T07:02:01;22.40;99.90
27848;DHT22;15212;48.830;8.730;2023-07-02T07:04:30;22.70;99.90
27848;DHT22;15212;48.830;8.730;2023-07-02T07:06:58;22.90;99.90
27848;DHT22;15212;48.830;8.730;2023-07-02T07:09:29;23.00;99.90
27848;DHT22;15212;48.830;8.730;2023-07-02T07:11:58;22.50;99.90
27848;DHT22;15212;48.830;8.730;2023-07-02T07:14:26;22.40;99.90
27848;DHT22;15212;48.830;8.730;2023-07-02T07:16:54;21.70;99.90
27848;DHT22;15212;48.830;8.730;2023-07-02T07:19:23;21.60;99.90
27848;DHT22;15212;48.830;8.730;2023-07-02T07:21:51;21.70;99.90
27848;DHT22;15212;48.830;8.730;2023-07-02T07:24:19;21.90;99.90
27848;DHT22;15212;48.830;8.730;2023-07-02T07:26:48;22.00;99.90
27848;DHT22;15212;48.830;8.730;2023-07-02T07:29:16;21.70;99.90
27848;DHT22;15212;48.830;8.730;2023-07-02T07:31:45;21.90;99.90
27848;DHT22;15212;48.830;8.730;2023-07-02T07:34:13;21.90;99.90
27848;DHT22;15212;48.830;8.730;2023-07-02T07:36:41;22.10;99.90
27848;DHT22;15212;48.830;8.730;2023-07-02T07:39:10;22.10;99.90
27848;DHT22;15212;48.830;8.730;2023-07-02T07:41:38;22.20;99.90
27848;DHT22;15212;48.830;8.730;2023-07-02T07:44:06;21.80;99.90
27848;DHT22;15212;48.830;8.730;2023-07-02T07:46:35;21.50;99.90
27848;DHT22;15212;48.830;8.730;2023-07-02T07:49:03;21.10;99.90
27848;DHT22;15212;48.830;8.730;2023-07-02T07:51:31;21.00;99.90
27848;DHT22;15212;48.830;8.730;2023-07-02T07:54:02;20.60;99.90
27848;DHT22;15212;48.830;8.730;2023-07-02T07:56:31;20.10;99.90
27848;DHT22;15212;48.830;8.730;2023-07-02T07:58:59;19.80;99.90
27848;DHT22;15212;48.830;8.730;2023-07-02T08:01:28;20.10;99.90
27848;DHT22;15212;48.830;8.730;2023-07-02T08:03:56;19.90;99.90
27848;DHT22;15212;48.830;8.730;2023-07-02T08:06:24;19.70;99.90
27848;DHT22;15212;48.830;8.730;2023-07-02T08:08:53;19.60;99.90
27848;DHT22;15212;48.830;8.730;2023-07-02T08:11:22;19.50;99.90
27848;DHT22;15212;48.830;8.730;2023-07-02T08:13:50;19.30;99.90
27848;DHT22;15212;48.830;8.730;2023-07-02T08:16:19;19.00;99.90
27848;DHT22;15212;48.830;8.730;2023-07-02T08:18:47;18.70;99.90
27848;DHT22;15212;48.830;8.730;2023-07-02T08:21:16;18.60;99.90
27848;DHT22;15212;48.830;8.730;2023-07-02T08:23:45;18.40;99.90
27848;DHT22;15212;48.830;8.730;2023-07-02T08:26:13;18.30;99.90
27848;DHT22;15212;48.830;8.730;2023-07-02T08:28:42;18.40;99.90
27848;DHT22;15212;48.830;8.730;2023-07-02T08:31:10;18.50;99.90
27848;DHT22;15212;48.830;8.730;2023-07-02T08:33:38;18.60;99.90
27848;DHT22;15212;48.830;8.730;2023-07-02T08:36:07;18.70;99.90
27848;DHT22;15212;48.830;8.730;2023-07-02T08:38:36;19.00;99.90
27848;DHT22;15212;48.830;8.730;2023-07-02T08:41:06;19.10;99.90
27848;DHT22;15212;48.830;8.730;2023-07-02T08:43:36;19.30;99.90
27848;DHT22;15212;48.830;8.730;2023-07-02T08:46:04;19.60;99.90
27848;DHT22;15212;48.830;8.730;2023-07-02T08:48:34;19.90;99.90
27848;DHT22;15212;48.830;8.730;2023-07-02T08:51:03;19.90;99.90
27848;DHT22;15212;48.830;8.730;2023-07-02T08:53:31;20.00;99.90
27848;DHT22;15212;48.830;8.730;2023-07-02T08:56:03;19.90;99.90
27848;DHT22;15212;48.830;8.730;2023-07-02T08:58:32;19.90;99.90
27848;DHT22;15212;48.830;8.730;2023-07-02T09:01:08;20.20;99.90
27848;DHT22;15212;48.830;8.730;2023-07-02T09:03:40;20.10;99.90
27848;DHT22;15212;48.830;8.730;2023-07-02T09:06:11;20.20;99.90
27848;DHT22;15212;48.830;8.730;2023-07-02T09:08:39;20.40;99.90
27848;DHT22;15212;48.830;8.730;2023-07-02T09:11:15;20.60;99.90
27848;DHT22;15212;48.830;8.730;2023-07-02T09:13:46;20.70;99.90
27848;DHT22;15212;48.830;8.730;2023-07-02T09:16:26;20.70;99.90
27848;DHT22;15212;48.830;8.730;2023-07-02T09:19:00;20.70;99.90
27848;DHT22;15212;48.830;8.730;2023-07-02T09:21:42;20.50;99.90
27848;DHT22;15212;48.830;8.730;2023-07-02T09:24:24;20.40;99.90
27848;DHT22;15212;48.830;8.730;2023-07-02T09:26:54;20.10;99.90
27848;DHT22;15212;48.830;8.730;2023-07-02T09:29:26;20.00;99.90
27848;DHT22;15212;48.830;8.730;2023-07-02T09:32:00;20.00;99.90
27848;DHT22;15212;48.830;8.730;2023-07-02T09:34:30;20.00;99.90
27848;DHT22;15212;48.830;8.730;2023-07-02T09:36:59;20.00;99.90
27848;DHT22;15212;48.830;8.730;2023-07-02T09:39:31;20.10;99.90
27848;DHT22;15212;48.830;8.730;2023-07-02T09:42:02;20.30;99.90
27848;DHT22;15212;48.830;8.730;2023-07-02T09:44:33;20.40;99.90
27848;DHT22;15212;48.830;8.730;2023-07-02T09:47:04;20.50;99.90
27848;DHT22;15212;48.830;8.730;2023-07-02T09:49:35;20.50;99.90
27848;DHT22;15212;48.830;8.730;2023-07-02T09:52:07;20.50;99.90
27848;DHT22;15212;48.830;8.730;2023-07-02T09:54:39;20.40;99.90
27848;DHT22;15212;48.830;8.730;2023-07-02T09:57:08;20.10;99.90
27848;DHT22;15212;48.830;8.730;2023-07-02T09:59:38;19.80;99.90
27848;DHT22;15212;48.830;8.730;2023-07-02T10:02:09;19.60;99.90
27848;DHT22;15212;48.830;8.730;2023-07-02T10:04:45;19.50;99.90
27848;DHT22;15212;48.830;8.730;2023-07-02T10:07:32;19.70;99.90
27848;DHT22;15212;48.830;8.730;2023-07-02T10:09:57;19.90;99.90
27848;DHT22;15212;48.830;8.730;2023-07-02T10:12:27;20.00;99.90
27848;DHT22;15212;48.830;8.730;2023-07-02T10:14:57;20.00;99.90
27848;DHT22;15212;48.830;8.730;2023-07-02T10:17:33;19.90;99.90
27848;DHT22;15212;48.830;8.730;2023-07-02T10:20:05;20.10;99.90
27848;DHT22;15212;48.830;8.730;2023-07-02T10:22:50;20.20;99.90
27848;DHT22;15212;48.830;8.730;2023-07-02T10:25:35;20.40;99.90
27848;DHT22;15212;48.830;8.730;2023-07-02T10:28:17;20.40;99.90
27848;DHT22;15212;48.830;8.730;2023-07-02T10:30:48;20.40;99.90
27848;DHT22;15212;48.830;8.730;2023-07-02T10:33:19;20.30;99.90
27848;DHT22;15212;48.830;8.730;2023-07-02T10:35:49;20.10;99.90
27848;DHT22;15212;48.830;8.730;2023-07-02T10:38:20;19.80;99.90
27848;DHT22;15212;48.830;8.730;2023-07-02T10:40:58;19.90;99.90
27848;DHT22;15212;48.830;8.730;2023-07-02T10:43:31;19.90;99.90
27848;DHT22;15212;48.830;8.730;2023-07-02T10:46:00;19.90;99.90
27848;DHT22;15212;48.830;8.730;2023-07-02T10:48:29;20.00;99.90
27848;DHT22;15212;48.830;8.730;2023-07-02T10:50:58;20.30;99.90
27848;DHT22;15212;48.830;8.730;2023-07-02T10:53:26;20.40;99.90
27848;DHT22;15212;48.830;8.730;2023-07-02T10:55:55;20.40;99.90
27848;DHT22;15212;48.830;8.730;2023-07-02T10:58:26;20.60;99.90
27848;DHT22;15212;48.830;8.730;2023-07-02T11:00:54;20.80;99.90
27848;DHT22;15212;48.830;8.730;2023-07-02T11:03:24;20.90;99.90
27848;DHT22;15212;48.830;8.730;2023-07-02T11:05:54;20.80;99.90
27848;DHT22;15212;48.830;8.730;2023-07-02T11:08:22;20.70;99.90
27848;DHT22;15212;48.830;8.730;2023-07-02T11:11:05;20.60;99.90
27848;DHT22;15212;48.830;8.730;2023-07-02T11:13:44;20.60;99.90
27848;DHT22;15212;48.830;8.730;2023-07-02T11:16:27;20.40;99.90
27848;DHT22;15212;48.830;8.730;2023-07-02T11:19:10;20.30;99.90
27848;DHT22;15212;48.830;8.730;2023-07-02T11:21:49;20.30;99.90
27848;DHT22;15212;48.830;8.730;2023-07-02T11:24:10;20.50;99.90
27848;DHT22;15212;48.830;8.730;2023-07-02T11:26:39;20.40;99.90
27848;DHT22;15212;48.830;8.730;2023-07-02T11:29:12;20.20;99.90
27848;DHT22;15212;48.830;8.730;2023-07-02T11:31:44;20.20;99.90
27848;DHT22;15212;48.830;8.730;2023-07-02T11:34:16;20.20;99.90
27848;DHT22;15212;48.830;8.730;2023-07-02T11:36:45;20.30;99.90
27848;DHT22;15212;48.830;8.730;2023-07-02T11:39:14;20.60;99.90
27848;DHT22;15212;48.830;8.730;2023-07-02T11:41:44;21.10;99.90
27848;DHT22;15212;48.830;8.730;2023-07-02T11:44:13;21.30;99.90
27848;DHT22;15212;48.830;8.730;2023-07-02T11:46:42;21.60;99.90
27848;DHT22;15212;48.830;8.730;2023-07-02T11:49:10;21.80;99.90
27848;DHT22;15212;48.830;8.730;2023-07-02T11:51:43;21.90;99.90
27848;DHT22;15212;48.830;8.730;2023-07-02T11:54:14;21.90;99.90
27848;DHT22;15212;48.830;8.730;2023-07-02T11:56:42;21.80;99.90
27848;DHT22;15212;48.830;8.730;2023-07-02T11:59:11;21.80;99.90
27848;DHT22;15212;48.830;8.730;2023-07-02T12:01:39;21.70;99.90
27848;DHT22;15212;48.830;8.730;2023-07-02T12:04:10;21.60;99.90
27848;DHT22;15212;48.830;8.730;2023-07-02T12:06:39;21.60;99.90
27848;DHT22;15212;48.830;8.730;2023-07-02T12:09:08;21.70;99.90
27848;DHT22;15212;48.830;8.730;2023-07-02T12:11:36;21.90;99.90
27848;DHT22;15212;48.830;8.730;2023-07-02T12:14:05;21.90;99.90
27848;DHT22;15212;48.830;8.730;2023-07-02T12:16:33;21.90;99.90
27848;DHT22;15212;48.830;8.730;2023-07-02T12:19:02;22.10;99.90
27848;DHT22;15212;48.830;8.730;2023-07-02T12:21:30;22.20;99.90
27848;DHT22;15212;48.830;8.730;2023-07-02T12:23:59;22.20;99.90
27848;DHT22;15212;48.830;8.730;2023-07-02T12:26:28;22.40;99.90
27848;DHT22;15212;48.830;8.730;2023-07-02T12:28:56;22.50;99.90
27848;DHT22;15212;48.830;8.730;2023-07-02T12:31:24;22.30;99.90
27848;DHT22;15212;48.830;8.730;2023-07-02T12:33:53;22.30;99.90
27848;DHT22;15212;48.830;8.730;2023-07-02T12:36:21;22.20;99.90
27848;DHT22;15212;48.830;8.730;2023-07-02T12:38:50;22.30;99.90
27848;DHT22;15212;48.830;8.730;2023-07-02T12:41:18;22.50;99.90
27848;DHT22;15212;48.830;8.730;2023-07-02T12:43:46;22.80;99.90
27848;DHT22;15212;48.830;8.730;2023-07-02T12:46:15;22.90;99.90
27848;DHT22;15212;48.830;8.730;2023-07-02T12:48:43;23.10;99.90
27848;DHT22;15212;48.830;8.730;2023-07-02T12:51:11;23.20;99.60
27848;DHT22;15212;48.830;8.730;2023-07-02T12:53:40;23.40;99.90
27848;DHT22;15212;48.830;8.730;2023-07-02T12:56:09;23.40;99.90
27848;DHT22;15212;48.830;8.730;2023-07-02T12:58:37;23.10;99.90
27848;DHT22;15212;48.830;8.730;2023-07-02T13:01:06;23.10;99.90
27848;DHT22;15212;48.830;8.730;2023-07-02T13:03:34;23.20;99.90
27848;DHT22;15212;48.830;8.730;2023-07-02T13:06:03;23.20;99.90
27848;DHT22;15212;48.830;8.730;2023-07-02T13:08:31;23.20;99.50
27848;DHT22;15212;48.830;8.730;2023-07-02T13:10:59;23.20;99.90
27848;DHT22;15212;48.830;8.730;2023-07-02T13:13:28;23.10;99.70
27848;DHT22;15212;48.830;8.730;2023-07-02T13:15:56;23.30;98.70
27848;DHT22;15212;48.830;8.730;2023-07-02T13:18:25;23.30;98.40
27848;DHT22;15212;48.830;8.730;2023-07-02T13:20:54;23.50;99.80
27848;DHT22;15212;48.830;8.730;2023-07-02T13:23:22;23.60;99.20
27848;DHT22;15212;48.830;8.730;2023-07-02T13:25:51;23.60;98.10
27848;DHT22;15212;48.830;8.730;2023-07-02T13:28:20;23.70;98.40
27848;DHT22;15212;48.830;8.730;2023-07-02T13:30:49;23.60;98.00
27848;DHT22;15212;48.830;8.730;2023-07-02T13:33:18;23.60;97.30
27848;DHT22;15212;48.830;8.730;2023-07-02T13:35:46;23.40;98.40
27848;DHT22;15212;48.830;8.730;2023-07-02T13:38:15;23.30;97.50
27848;DHT22;15212;48.830;8.730;2023-07-02T13:40:44;23.10;97.10
27848;DHT22;15212;48.830;8.730;2023-07-02T13:43:12;23.10;97.60
27848;DHT22;15212;48.830;8.730;2023-07-02T13:45:40;23.00;97.60
27848;DHT22;15212;48.830;8.730;2023-07-02T13:48:09;23.10;98.10
27848;DHT22;15212;48.830;8.730;2023-07-02T13:50:37;23.00;96.60
27848;DHT22;15212;48.830;8.730;2023-07-02T13:53:06;22.90;96.70
27848;DHT22;15212;48.830;8.730;2023-07-02T13:55:35;23.00;96.70
27848;DHT22;15212;48.830;8.730;2023-07-02T13:58:03;23.00;96.90
27848;DHT22;15212;48.830;8.730;2023-07-02T14:00:32;23.00;96.70
27848;DHT22;15212;48.830;8.730;2023-07-02T14:03:01;23.00;95.80
27848;DHT22;15212;48.830;8.730;2023-07-02T14:05:30;23.00;97.00
27848;DHT22;15212;48.830;8.730;2023-07-02T14:07:59;22.90;97.20
27848;DHT22;15212;48.830;8.730;2023-07-02T14:10:27;22.80;97.30
27848;DHT22;15212;48.830;8.730;2023-07-02T14:12:56;22.80;96.70
27848;DHT22;15212;48.830;8.730;2023-07-02T14:15:25;23.00;96.40
27848;DHT22;15212;48.830;8.730;2023-07-02T14:21:06;23.20;96.40
27848;DHT22;15212;48.830;8.730;2023-07-02T14:23:34;23.30;97.50
27848;DHT22;15212;48.830;8.730;2023-07-02T14:26:03;23.50;96.60
27848;DHT22;15212;48.830;8.730;2023-07-02T14:28:31;23.60;96.20
27848;DHT22;15212;48.830;8.730;2023-07-02T14:31:02;23.80;96.50
27848;DHT22;15212;48.830;8.730;2023-07-02T14:33:32;24.00;96.00
27848;DHT22;15212;48.830;8.730;2023-07-02T14:36:02;23.70;94.50
27848;DHT22;15212;48.830;8.730;2023-07-02T14:38:32;23.30;95.80
27848;DHT22;15212;48.830;8.730;2023-07-02T14:41:01;23.20;96.30
27848;DHT22;15212;48.830;8.730;2023-07-02T14:43:30;23.30;96.20
27848;DHT22;15212;48.830;8.730;2023-07-02T14:46:01;22.90;95.30
27848;DHT22;15212;48.830;8.730;2023-07-02T14:48:30;22.90;95.20
27848;DHT22;15212;48.830;8.730;2023-07-02T14:51:00;22.80;95.50
27848;DHT22;15212;48.830;8.730;2023-07-02T14:53:31;22.70;95.80
27848;DHT22;15212;48.830;8.730;2023-07-02T14:56:02;22.70;95.90
27848;DHT22;15212;48.830;8.730;2023-07-02T14:58:31;22.70;96.20
27848;DHT22;15212;48.830;8.730;2023-07-02T15:01:00;22.70;95.80
27848;DHT22;15212;48.830;8.730;2023-07-02T15:03:29;22.70;96.00
27848;DHT22;15212;48.830;8.730;2023-07-02T15:06:08;22.90;96.20
27848;DHT22;15212;48.830;8.730;2023-07-02T15:08:39;22.90;96.50
27848;DHT22;15212;48.830;8.730;2023-07-02T15:11:09;23.00;95.80
27848;DHT22;15212;48.830;8.730;2023-07-02T15:13:39;23.00;95.90
27848;DHT22;15212;48.830;8.730;2023-07-02T15:16:09;23.10;95.40
27848;DHT22;15212;48.830;8.730;2023-07-02T15:18:38;23.00;95.60
27848;DHT22;15212;48.830;8.730;2023-07-02T15:21:07;23.10;95.90
27848;DHT22;15212;48.830;8.730;2023-07-02T15:23:35;23.20;95.40
27848;DHT22;15212;48.830;8.730;2023-07-02T15:26:05;23.10;95.20
27848;DHT22;15212;48.830;8.730;2023-07-02T15:28:34;23.10;95.50
27848;DHT22;15212;48.830;8.730;2023-07-02T15:31:06;23.10;95.70
27848;DHT22;15212;48.830;8.730;2023-07-02T15:33:36;23.10;95.10
27848;DHT22;15212;48.830;8.730;2023-07-02T15:36:06;22.90;95.60
27848;DHT22;15212;48.830;8.730;2023-07-02T15:38:35;22.80;95.00
27848;DHT22;15212;48.830;8.730;2023-07-02T15:41:10;22.90;94.80
27848;DHT22;15212;48.830;8.730;2023-07-02T15:43:44;22.80;94.80
27848;DHT22;15212;48.830;8.730;2023-07-02T15:46:15;22.90;94.80